עמוד ראשי
METAR-TAF:

METAR-TAF

שדות תעופה :

Naples, פלורידה, ארצות הברית

קו רוחב: 26-09N, קו אורך: 081-46W, גובה: 2מטר

תצפית מזג אוויר נוכחית

הדו"ח נערך לפני 19דקות, בשעה 19:53 UTC
רוח 18קשר מכיוון מזרח/צפון-מזרח עם משבים עד 23קשר
טמפרטורת 33 צלסיוס
לחות 56%
לחץ 1013 hPa
ראות: 16.1קילומטר
מעט עננים בגובה 4400רגל
עננים פזורים בגובה 5500רגל
עננים בינוניים בגובה 10000רגל

METAR: KAPF 171953Z 07018G23KT 10SM FEW044 SCT055 BKN100 33/23 A2991 RMK AO2 SLP128 T03330233

זמן: 16:12 (20:12 UTC)

תחזית

הדו"ח נערך לפני 2 שעות ו 52דקות, בשעה 17:20 UTC
תחזית בתוקף מ 17 ב 18 UTC עד 18 ב 18 UTC
רוח 14קשר מכיוון מזרח עם משבים עד 22קשר
ראות: 10קילומטר
עננים פזורים בגובה 3000רגל
עננים בינוניים בגובה 5000רגל
ממטרים במרחב
מ 18 ב 0000UTC
רוח 10קשר מכיוון מזרח
ראות: 10קילומטר
עננים פזורים בגובה 5000רגל
מ 18 ב 1400UTC
רוח 13קשר מכיוון מזרח עם משבים עד 19קשר
ראות: 10קילומטר
עננים פזורים בגובה 3000רגל
עננים פזורים בגובה 5000רגל

TAF: KAPF 171720Z 1718/1818 08014G22KT P6SM VCSH SCT030 BKN050 FM180000 08010KT P6SM SCT050 FM181400 08013G19KT P6SM SCT030 SCT050

תצפיות ותחזיות מזג אוויר לגבי יותר מ- 4,000 שדות תעופה ברחבי העולם. דוחות METAR ו- TAF.

התחנות הזמינות מסומנות בנקודות צהובות ואדומות על גבי המפה.

העבר את העכבר לנקודה הצבעונית על מנת לראות את שם התחנה.

לאחר מכן, לחץ כדי לראות את תוכן ואת תחזיות מזג האוויר.

כדי לשנות את המפה: לחץ על הכפתורים הירוקים עם הפלוס השחור כדי להתקרב; על הכפתור הירוק עם המקף כדי להתרחק; או בחיצים הירוקים למפות סמוכות.


METAR-TAF: